createdAt,value
2023-07-03T00:02:58.420Z,3.50
2023-07-03T00:06:02.234Z,4.10
2023-07-03T00:09:06.524Z,3.60
2023-07-03T00:12:11.144Z,3.67
2023-07-03T00:15:14.832Z,3.80
2023-07-03T00:18:17.709Z,3.80
2023-07-03T00:21:20.311Z,4.03
2023-07-03T00:24:23.239Z,3.83
2023-07-03T00:27:25.987Z,3.95
2023-07-03T00:30:28.868Z,3.83
2023-07-03T00:33:31.402Z,4.22
2023-07-03T00:36:34.182Z,4.00
2023-07-03T00:39:37.666Z,4.00
2023-07-03T00:42:42.383Z,4.18
2023-07-03T00:45:44.890Z,4.53
2023-07-03T00:48:48.057Z,4.35
2023-07-03T00:51:54.765Z,4.00
2023-07-03T00:54:59.030Z,3.83
2023-07-03T00:58:01.558Z,4.10
2023-07-03T01:01:28.471Z,4.07
2023-07-03T01:08:00.258Z,4.60
2023-07-03T01:11:03.645Z,4.30
2023-07-03T01:14:08.803Z,4.00
2023-07-03T01:17:12.467Z,4.30
2023-07-03T01:20:18.842Z,4.30
2023-07-03T01:23:26.552Z,4.03
2023-07-03T01:26:29.606Z,4.22
2023-07-03T01:29:35.006Z,4.28
2023-07-03T01:32:39.370Z,4.35
2023-07-03T01:35:43.346Z,4.32
2023-07-03T01:38:48.240Z,4.05
2023-07-03T01:41:52.540Z,4.57
2023-07-03T01:44:55.510Z,4.70
2023-07-03T01:47:58.159Z,4.37
2023-07-03T01:51:03.197Z,4.43
2023-07-03T01:54:22.773Z,4.30
2023-07-03T02:01:01.083Z,4.10
2023-07-03T02:04:08.205Z,4.43
2023-07-03T02:07:13.442Z,4.12
2023-07-03T02:10:16.301Z,4.53
2023-07-03T02:13:19.450Z,5.07
2023-07-03T02:16:22.496Z,4.70
2023-07-03T02:19:29.760Z,4.25
2023-07-03T02:22:32.698Z,4.80
2023-07-03T02:25:35.310Z,4.62
2023-07-03T02:28:38.133Z,4.57
2023-07-03T02:31:41.242Z,4.40
2023-07-03T02:34:44.168Z,4.80
2023-07-03T02:37:46.671Z,5.00
2023-07-03T02:40:49.556Z,4.45
2023-07-03T02:43:52.161Z,4.47
2023-07-03T02:46:55.167Z,4.80
2023-07-03T02:49:58.196Z,4.65
2023-07-03T02:53:01.668Z,4.30
2023-07-03T02:56:04.804Z,4.70
2023-07-03T02:59:08.515Z,4.70
2023-07-03T03:02:11.504Z,4.62
2023-07-03T03:05:14.774Z,4.45
2023-07-03T03:08:17.731Z,4.80
2023-07-03T03:11:20.648Z,4.75
2023-07-03T03:14:23.840Z,5.00
2023-07-03T03:17:26.841Z,4.62
2023-07-03T03:20:29.449Z,4.65
2023-07-03T03:23:32.325Z,4.70
2023-07-03T03:26:34.816Z,5.43
2023-07-03T03:29:39.284Z,4.82
2023-07-03T03:32:43.375Z,4.57
2023-07-03T03:35:47.636Z,5.15
2023-07-03T03:38:50.611Z,4.90
2023-07-03T03:41:53.509Z,4.95
2023-07-03T03:44:56.111Z,4.85
2023-07-03T03:47:59.274Z,5.00
2023-07-03T03:51:02.364Z,4.90
2023-07-03T03:54:06.131Z,4.85
2023-07-03T03:57:08.752Z,4.82
2023-07-03T04:00:21.287Z,4.90
2023-07-03T04:03:24.414Z,5.03
2023-07-03T04:06:27.786Z,5.03
2023-07-03T04:09:30.720Z,5.20
2023-07-03T04:12:33.436Z,5.05
2023-07-03T04:15:52.897Z,4.82
2023-07-03T04:18:55.857Z,4.87
2023-07-03T04:21:59.760Z,5.18
2023-07-03T04:25:03.352Z,4.97
2023-07-03T04:28:06.383Z,4.78
2023-07-03T04:31:08.998Z,5.15
2023-07-03T04:34:11.830Z,4.95
2023-07-03T04:37:14.875Z,5.70
2023-07-03T04:40:18.777Z,4.72
2023-07-03T04:43:22.437Z,4.75
2023-07-03T04:46:29.333Z,5.20
2023-07-03T04:49:33.396Z,4.70
2023-07-03T04:52:37.518Z,6.10
2023-07-03T04:55:40.050Z,4.93
2023-07-03T04:58:42.904Z,4.95
2023-07-03T05:01:45.444Z,4.97
2023-07-03T05:04:48.658Z,4.87
2023-07-03T05:07:51.225Z,4.75
2023-07-03T05:10:54.069Z,4.93
2023-07-03T05:13:57.094Z,4.87
2023-07-03T05:16:59.910Z,4.45
2023-07-03T05:20:03.576Z,4.85
2023-07-03T05:23:06.357Z,4.65
2023-07-03T05:26:08.907Z,4.43
2023-07-03T05:29:11.697Z,4.85
2023-07-03T05:32:14.298Z,4.75
2023-07-03T05:35:17.215Z,4.20
2023-07-03T05:38:20.344Z,4.47
2023-07-03T05:41:25.402Z,4.20
2023-07-03T05:44:28.705Z,4.30
2023-07-03T05:47:31.640Z,4.12
2023-07-03T05:50:34.334Z,3.90
2023-07-03T05:53:37.139Z,4.37
2023-07-03T05:56:39.607Z,4.25
2023-07-03T05:59:42.437Z,3.70
2023-07-03T06:02:46.408Z,3.70
2023-07-03T06:05:49.698Z,4.00
2023-07-03T06:08:52.478Z,4.22
2023-07-03T06:11:56.792Z,3.83
2023-07-03T06:15:01.501Z,3.97
2023-07-03T06:18:05.127Z,4.20
2023-07-03T06:21:07.976Z,4.47
2023-07-03T06:24:12.963Z,4.03
2023-07-03T06:27:16.027Z,3.92
2023-07-03T06:30:19.829Z,6.37
2023-07-03T06:33:22.876Z,3.60
2023-07-03T06:36:26.484Z,3.33
2023-07-03T06:39:30.206Z,3.40
2023-07-03T06:42:33.052Z,3.00
2023-07-03T06:45:38.295Z,3.87
2023-07-03T06:48:41.119Z,3.53
2023-07-03T06:51:44.019Z,3.97
2023-07-03T06:54:49.673Z,3.20
2023-07-03T06:57:52.192Z,3.50
2023-07-03T07:00:55.282Z,3.30
2023-07-03T07:03:58.662Z,3.28
2023-07-03T07:07:01.846Z,3.20
2023-07-03T07:10:04.665Z,3.08
2023-07-03T07:13:09.124Z,3.15
2023-07-03T07:16:19.942Z,3.08
2023-07-03T07:22:25.148Z,3.15
2023-07-03T07:25:28.265Z,3.55
2023-07-03T07:28:31.314Z,3.25
2023-07-03T07:31:39.776Z,3.35
2023-07-03T07:34:44.344Z,4.12
2023-07-03T07:37:47.134Z,5.05
2023-07-03T07:40:50.531Z,4.35
2023-07-03T07:43:54.318Z,4.75
2023-07-03T07:46:57.091Z,4.40
2023-07-03T07:50:00.012Z,5.10
2023-07-03T07:53:02.662Z,4.30
2023-07-03T07:56:08.328Z,4.93
2023-07-03T07:59:10.929Z,4.85
2023-07-03T08:02:13.820Z,5.03
2023-07-03T08:05:16.970Z,5.43
2023-07-03T08:08:19.515Z,5.47
2023-07-03T08:11:22.439Z,5.43
2023-07-03T08:14:24.952Z,5.18
2023-07-03T08:17:27.785Z,5.68
2023-07-03T08:20:30.420Z,6.25
2023-07-03T08:23:33.365Z,6.47
2023-07-03T08:26:35.942Z,6.12
2023-07-03T08:29:38.825Z,7.10
2023-07-03T08:32:42.232Z,6.03
2023-07-03T08:38:51.157Z,5.60
2023-07-03T08:42:05.478Z,5.87
2023-07-03T08:45:13.254Z,6.53
2023-07-03T08:48:25.504Z,6.40
2023-07-03T08:51:31.152Z,5.50
2023-07-03T08:54:37.046Z,6.07
2023-07-03T08:57:40.122Z,6.07
2023-07-03T09:01:08.066Z,6.32
2023-07-03T09:04:26.281Z,5.90
2023-07-03T09:07:42.213Z,6.28
2023-07-03T09:10:49.124Z,6.20
2023-07-03T09:13:55.968Z,7.12
2023-07-03T09:16:58.686Z,7.30
2023-07-03T09:20:05.259Z,7.93
2023-07-03T09:23:21.975Z,7.65
2023-07-03T09:26:32.188Z,8.20
2023-07-03T09:29:36.539Z,7.40
2023-07-03T09:32:40.401Z,8.80
2023-07-03T09:35:43.996Z,7.65
2023-07-03T09:38:46.985Z,7.95
2023-07-03T09:41:49.496Z,7.95
2023-07-03T09:44:52.550Z,7.35
2023-07-03T09:47:59.594Z,7.28
2023-07-03T09:51:08.992Z,7.78
2023-07-03T09:54:23.657Z,7.68
2023-07-03T09:57:27.943Z,7.45
2023-07-03T10:00:33.069Z,7.28
2023-07-03T10:03:36.925Z,7.97
2023-07-03T10:06:51.809Z,7.43
2023-07-03T10:13:17.706Z,7.60
2023-07-03T10:16:24.503Z,7.82
2023-07-03T10:19:28.432Z,7.70
2023-07-03T10:22:33.001Z,7.90
2023-07-03T10:25:41.149Z,7.87
2023-07-03T10:29:01.414Z,8.38
2023-07-03T10:32:16.316Z,8.40
2023-07-03T10:35:31.842Z,8.68
2023-07-03T10:38:44.395Z,7.70
2023-07-03T10:41:55.197Z,7.82
2023-07-03T10:45:05.040Z,7.87
2023-07-03T10:48:24.753Z,8.00
2023-07-03T10:51:43.184Z,8.40
2023-07-03T10:54:56.908Z,8.05
2023-07-03T10:58:27.889Z,6.95
2023-07-03T11:01:43.257Z,7.50
2023-07-03T11:05:04.389Z,6.80
2023-07-03T11:08:34.676Z,7.55
2023-07-03T11:11:46.560Z,7.62
2023-07-03T11:15:13.988Z,8.18
2023-07-03T11:28:57.100Z,6.78
2023-07-03T11:32:00.499Z,7.30
2023-07-03T11:44:28.299Z,7.30
2023-07-03T11:47:34.543Z,6.70
2023-07-03T11:50:37.115Z,6.57
2023-07-03T11:53:41.451Z,6.00
2023-07-03T11:56:50.319Z,6.65
2023-07-03T11:59:53.350Z,6.55
2023-07-03T12:02:57.800Z,6.75
2023-07-03T12:06:04.059Z,6.32
2023-07-03T12:09:21.911Z,6.55
2023-07-03T12:12:27.882Z,7.35
2023-07-03T12:15:30.445Z,7.28
2023-07-03T12:18:35.299Z,6.90
2023-07-03T12:21:44.916Z,6.90
2023-07-03T12:24:47.769Z,6.95
2023-07-03T12:27:51.533Z,7.68
2023-07-03T12:31:17.900Z,8.00
2023-07-03T12:34:26.194Z,8.73
2023-07-03T12:37:29.087Z,8.07
2023-07-03T12:40:32.173Z,8.00
2023-07-03T12:43:35.818Z,7.60
2023-07-03T12:46:42.173Z,8.18
2023-07-03T12:49:57.332Z,8.82
2023-07-03T12:53:01.879Z,7.90
2023-07-03T12:56:10.093Z,8.13
2023-07-03T12:59:18.063Z,7.70
2023-07-03T13:02:24.150Z,8.30
2023-07-03T13:05:27.704Z,8.35
2023-07-03T13:08:30.798Z,8.63
2023-07-03T13:11:40.821Z,8.52
2023-07-03T13:14:59.406Z,8.70
2023-07-03T13:18:06.976Z,8.70
2023-07-03T13:21:09.867Z,8.25
2023-07-03T13:24:16.117Z,9.10
2023-07-03T13:27:24.635Z,8.27
2023-07-03T13:30:32.896Z,9.33
2023-07-03T13:33:38.569Z,8.95
2023-07-03T13:36:57.670Z,8.93
2023-07-03T13:40:02.388Z,9.23
2023-07-03T13:43:05.972Z,8.93
2023-07-03T13:46:09.405Z,9.15
2023-07-03T13:49:15.267Z,8.98
2023-07-03T13:52:18.081Z,9.20
2023-07-03T13:55:21.154Z,8.32
2023-07-03T13:58:24.093Z,9.30
2023-07-03T14:01:27.349Z,9.55
2023-07-03T14:04:30.422Z,8.68
2023-07-03T14:07:32.973Z,8.85
2023-07-03T14:10:35.779Z,9.20
2023-07-03T14:13:39.241Z,9.23
2023-07-03T14:16:42.110Z,8.90
2023-07-03T14:19:44.623Z,9.15
2023-07-03T14:22:49.539Z,8.98
2023-07-03T14:25:52.406Z,8.80
2023-07-03T14:28:55.350Z,8.50
2023-07-03T14:31:58.355Z,9.23
2023-07-03T14:35:02.438Z,8.80
2023-07-03T14:38:05.334Z,8.48
2023-07-03T14:41:09.399Z,8.75
2023-07-03T14:44:11.939Z,8.45
2023-07-03T14:47:14.879Z,8.88
2023-07-03T14:50:17.640Z,9.45
2023-07-03T14:53:20.668Z,8.88
2023-07-03T14:56:23.338Z,8.88
2023-07-03T14:59:26.255Z,9.00
2023-07-03T15:02:28.867Z,8.23
2023-07-03T15:05:31.746Z,9.00
2023-07-03T15:08:34.209Z,8.60
2023-07-03T15:11:37.675Z,8.40
2023-07-03T15:14:40.783Z,8.93
2023-07-03T15:17:43.710Z,8.40
2023-07-03T15:20:47.202Z,8.32
2023-07-03T15:23:51.678Z,8.15
2023-07-03T15:26:54.322Z,8.65
2023-07-03T15:29:57.182Z,7.78
2023-07-03T15:32:59.707Z,8.80
2023-07-03T15:36:03.922Z,8.02
2023-07-03T15:39:07.242Z,8.15
2023-07-03T15:42:10.581Z,8.50
2023-07-03T15:45:13.518Z,8.50
2023-07-03T15:48:16.430Z,8.55
2023-07-03T15:51:19.691Z,8.85
2023-07-03T15:54:22.549Z,8.93
2023-07-03T15:57:25.191Z,8.18
2023-07-03T16:00:28.134Z,9.00
2023-07-03T16:03:31.518Z,8.60
2023-07-03T16:06:36.223Z,8.50
2023-07-03T16:09:39.099Z,7.85
2023-07-03T16:12:41.730Z,8.95
2023-07-03T16:15:45.407Z,8.75
2023-07-03T16:18:49.637Z,8.10
2023-07-03T16:21:52.494Z,9.07
2023-07-03T16:24:55.034Z,8.50
2023-07-03T16:27:58.186Z,8.55
2023-07-03T16:31:02.495Z,9.00
2023-07-03T16:34:05.444Z,9.20
2023-07-03T16:37:07.952Z,8.73
2023-07-03T16:40:11.741Z,8.93
2023-07-03T16:43:14.364Z,8.90
2023-07-03T16:46:20.103Z,8.90
2023-07-03T16:49:22.711Z,8.40
2023-07-03T16:52:25.474Z,9.02
2023-07-03T16:55:28.072Z,8.25
2023-07-03T16:58:31.357Z,8.93
2023-07-03T17:01:34.026Z,8.27
2023-07-03T17:04:37.400Z,8.75
2023-07-03T17:07:39.920Z,9.20
2023-07-03T17:10:42.740Z,8.88
2023-07-03T17:13:45.334Z,9.50
2023-07-03T17:16:48.414Z,9.60
2023-07-03T17:19:51.051Z,9.50
2023-07-03T17:22:54.252Z,9.25
2023-07-03T17:25:56.811Z,9.00
2023-07-03T17:29:00.114Z,8.77
2023-07-03T17:32:02.849Z,8.93
2023-07-03T17:35:05.950Z,8.75
2023-07-03T17:38:11.750Z,8.63
2023-07-03T17:41:14.568Z,9.52
2023-07-03T17:44:17.144Z,9.05
2023-07-03T17:47:19.989Z,8.75
2023-07-03T17:50:22.618Z,8.90
2023-07-03T17:53:26.196Z,9.00
2023-07-03T17:56:28.905Z,8.98
2023-07-03T17:59:31.789Z,8.70
2023-07-03T18:02:34.342Z,8.85
2023-07-03T18:05:37.406Z,8.35
2023-07-03T18:08:40.066Z,8.75
2023-07-03T18:11:43.185Z,8.20
2023-07-03T18:14:45.926Z,8.68
2023-07-03T18:17:48.694Z,8.65
2023-07-03T18:20:51.275Z,8.10
2023-07-03T18:23:55.558Z,8.32
2023-07-03T18:26:58.777Z,9.27
2023-07-03T18:30:01.734Z,8.20
2023-07-03T18:33:07.534Z,8.38
2023-07-03T18:36:10.456Z,8.15
2023-07-03T18:39:13.257Z,8.55
2023-07-03T18:42:16.168Z,8.48
2023-07-03T18:45:18.787Z,8.60
2023-07-03T18:48:21.682Z,8.43
2023-07-03T18:51:24.292Z,7.93
2023-07-03T18:54:27.141Z,8.32
2023-07-03T18:57:29.772Z,8.45
2023-07-03T19:00:32.754Z,8.93
2023-07-03T19:03:35.609Z,7.65
2023-07-03T19:06:40.251Z,8.50
2023-07-03T19:09:42.919Z,8.07
2023-07-03T19:12:47.024Z,8.48
2023-07-03T19:15:50.466Z,8.10
2023-07-03T19:18:55.003Z,8.30
2023-07-03T19:21:57.820Z,8.70
2023-07-03T19:25:00.977Z,8.73
2023-07-03T19:28:03.783Z,8.30
2023-07-03T19:31:06.970Z,8.65
2023-07-03T19:34:09.748Z,8.10
2023-07-03T19:37:12.923Z,9.02
2023-07-03T19:40:15.978Z,8.32
2023-07-03T19:43:19.649Z,8.32
2023-07-03T19:46:22.284Z,8.52
2023-07-03T19:49:26.195Z,8.27
2023-07-03T19:52:29.742Z,8.73
2023-07-03T19:55:37.144Z,8.65
2023-07-03T19:58:40.032Z,8.18
2023-07-03T20:01:43.584Z,8.75
2023-07-03T20:04:48.055Z,8.63
2023-07-03T20:07:52.500Z,13.82
2023-07-03T20:11:00.809Z,8.60
2023-07-03T20:14:05.677Z,9.55
2023-07-03T20:17:08.643Z,8.68
2023-07-03T20:20:11.854Z,8.68
2023-07-03T20:23:14.732Z,8.43
2023-07-03T20:26:17.335Z,8.52
2023-07-03T20:29:20.149Z,9.32
2023-07-03T20:32:22.749Z,9.23
2023-07-03T20:35:25.604Z,8.95
2023-07-03T20:38:29.085Z,8.50
2023-07-03T20:41:33.105Z,8.98
2023-07-03T20:44:35.721Z,9.18
2023-07-03T20:47:38.618Z,8.30
2023-07-03T20:50:51.049Z,9.05
2023-07-03T20:53:53.991Z,8.82
2023-07-03T20:56:56.527Z,9.00
2023-07-03T21:00:05.993Z,9.23
2023-07-03T21:03:08.642Z,8.80
2023-07-03T21:06:14.313Z,9.48
2023-07-03T21:09:16.823Z,8.98
2023-07-03T21:12:19.539Z,9.02
2023-07-03T21:15:22.065Z,9.05
2023-07-03T21:18:25.407Z,9.02
2023-07-03T21:21:31.444Z,9.18
2023-07-03T21:24:34.455Z,8.77
2023-07-03T21:27:37.557Z,9.07
2023-07-03T21:30:43.926Z,8.95
2023-07-03T21:33:46.595Z,8.75
2023-07-03T21:36:49.404Z,9.18
2023-07-03T21:39:51.959Z,9.25
2023-07-03T21:42:55.009Z,9.60
2023-07-03T21:46:09.293Z,9.63
2023-07-03T21:49:14.485Z,9.73
2023-07-03T21:52:16.920Z,9.25
2023-07-03T21:55:21.060Z,8.85
2023-07-03T21:58:23.526Z,9.85
2023-07-03T22:01:32.277Z,9.30
2023-07-03T22:04:35.450Z,9.15
2023-07-03T22:07:38.155Z,9.27
2023-07-03T22:10:41.057Z,9.70
2023-07-03T22:13:44.169Z,9.38
2023-07-03T22:16:48.173Z,9.23
2023-07-03T22:19:52.889Z,9.30
2023-07-03T22:22:55.720Z,8.85
2023-07-03T22:25:59.751Z,9.45
2023-07-03T22:29:02.703Z,8.73
2023-07-03T22:32:05.975Z,9.00
2023-07-03T22:35:10.028Z,9.00
2023-07-03T22:38:12.756Z,9.63
2023-07-03T22:41:16.375Z,9.10
2023-07-03T22:44:18.820Z,9.30
2023-07-03T22:47:21.808Z,9.52
2023-07-03T22:50:25.355Z,9.40
2023-07-03T22:53:28.361Z,8.70
2023-07-03T22:56:30.876Z,9.05
2023-07-03T22:59:34.162Z,9.30
2023-07-03T23:02:44.582Z,9.05
2023-07-03T23:05:47.450Z,9.32
2023-07-03T23:08:52.587Z,9.02
2023-07-03T23:11:55.540Z,9.57
2023-07-03T23:14:58.136Z,9.50
2023-07-03T23:18:01.338Z,9.30
2023-07-03T23:21:11.434Z,9.75
2023-07-03T23:24:17.278Z,9.35
2023-07-03T23:27:20.979Z,8.40
2023-07-03T23:30:24.203Z,9.07
2023-07-03T23:33:28.167Z,9.45
2023-07-03T23:36:31.575Z,10.18
2023-07-03T23:39:35.036Z,8.93
2023-07-03T23:42:37.816Z,9.95
2023-07-03T23:45:44.323Z,9.85
2023-07-03T23:48:47.305Z,9.73
2023-07-03T23:51:50.216Z,8.82
2023-07-03T23:54:53.041Z,7.53
2023-07-03T23:57:55.485Z,6.15
